Time,TemperatureF,DewpointF,PressureIn,WindDirection,WindDirectionDegrees,WindSpeedMPH,WindSpeedGustMPH,Humidity,HourlyPrecipIn,Conditions,Clouds,dailyrainin,SoftwareType,DateUTC
2013-11-01 00:01:00,67.8,63.5,29.87,WSW,256,2.3,2.3,86,0.00,CLR,,0.00,WeatherDisplay:10.37,2013-11-01 04:01:00,
2013-11-01 00:02:00,67.8,63.5,29.86,South,179,3.5,3.5,86,0.00,CLR,,0.00,WeatherDisplay:10.37,2013-11-01 04:02:00,
2013-11-01 00:07:00,67.9,63.6,29.86,SW,218,1.2,1.2,86,0.00,CLR,,0.00,WeatherDisplay:10.37,2013-11-01 04:07:00,
2013-11-01 00:12:00,68.0,63.7,29.86,WSW,252,4.6,4.6,86,0.00,CLR,,0.00,WeatherDisplay:10.37,2013-11-01 04:12:00,
2013-11-01 00:17:00,68.0,63.7,29.86,West,263,4.0,4.0,86,0.00,CLR,,0.00,WeatherDisplay:10.37,2013-11-01 04:17:00,
2013-11-01 00:22:00,68.0,63.7,29.86,NE,38,5.8,5.8,86,0.00,CLR,,0.00,WeatherDisplay:10.37,2013-11-01 04:22:00,
2013-11-01 00:27:00,68.1,64.1,29.85,ENE,65,0.0,0.1,87,0.00,CLR,,0.00,WeatherDisplay:10.37,2013-11-01 04:27:00,
2013-11-01 00:32:00,68.1,64.1,29.86,SSE,158,10.4,10.4,87,0.00,CLR,,0.00,WeatherDisplay:10.37,2013-11-01 04:32:00,
2013-11-01 00:37:00,68.2,64.2,29.85,East,91,0.0,0.0,87,0.00,CLR,,0.00,WeatherDisplay:10.37,2013-11-01 04:37:00,
2013-11-01 00:42:00,68.1,64.1,29.85,SW,221,3.5,3.5,87,0.00,CLR,,0.00,WeatherDisplay:10.37,2013-11-01 04:42:00,
2013-11-01 00:47:00,68.1,64.1,29.85,SW,229,11.5,11.5,87,0.00,CLR,,0.00,WeatherDisplay:10.37,2013-11-01 04:47:00,
2013-11-01 00:52:00,68.1,64.1,29.84,SSW,192,3.5,3.5,87,0.00,CLR,,0.00,WeatherDisplay:10.37,2013-11-01 04:52:00,
2013-11-01 00:57:00,68.1,64.1,29.84,South,182,11.5,11.5,87,0.00,CLR,,0.00,WeatherDisplay:10.37,2013-11-01 04:57:00,
2013-11-01 01:02:00,68.1,64.1,29.84,WSW,242,11.5,11.5,87,0.00,CLR,,0.00,WeatherDisplay:10.37,2013-11-01 05:02:00,
2013-11-01 01:07:00,68.1,64.1,29.83,SW,235,6.9,6.9,87,0.00,CLR,,0.00,WeatherDisplay:10.37,2013-11-01 05:07:00,
2013-11-01 01:12:00,68.1,64.1,29.82,SSW,196,6.9,6.9,87,0.00,CLR,,0.00,WeatherDisplay:10.37,2013-11-01 05:12:00,
2013-11-01 01:17:00,68.1,64.1,29.82,SE,145,6.9,6.9,87,0.00,CLR,,0.00,WeatherDisplay:10.37,2013-11-01 05:17:00,
2013-11-01 01:22:00,68.1,64.1,29.80,SW,216,10.4,10.4,87,0.00,CLR,,0.00,WeatherDisplay:10.37,2013-11-01 05:22:00,
2013-11-01 01:27:00,68.0,64.0,29.79,South,188,11.5,11.5,87,0.00,CLR,,0.00,WeatherDisplay:10.37,2013-11-01 05:27:00,
2013-11-01 01:32:00,68.1,64.1,29.79,NW,311,11.5,11.5,87,0.00,CLR,,0.00,WeatherDisplay:10.37,2013-11-01 05:32:00,
2013-11-01 01:37:00,68.1,64.1,29.79,SW,218,12.7,12.7,87,0.00,CLR,,0.00,WeatherDisplay:10.37,2013-11-01 05:37:00,
2013-11-01 01:42:00,68.1,64.1,29.79,SE,134,10.4,10.4,87,0.00,CLR,,0.00,WeatherDisplay:10.37,2013-11-01 05:42:00,
2013-11-01 01:45:00,68.2,64.2,29.78,South,171,4.6,4.6,87,0.00,CLR,,0.00,WeatherDisplay:10.37,2013-11-01 05:45:00,
2013-11-01 01:50:00,68.2,64.2,29.77,SSW,192,12.7,12.7,87,0.00,CLR,,0.00,WeatherDisplay:10.37,2013-11-01 05:50:00,
2013-11-01 01:55:00,68.2,63.9,29.78,WNW,300,4.6,4.6,86,0.00,CLR,,0.00,WeatherDisplay:10.37,2013-11-01 05:55:00,
2013-11-01 02:00:00,68.3,63.9,29.78,ESE,120,10.4,10.4,86,0.00,CLR,,0.00,WeatherDisplay:10.37,2013-11-01 06:00:00,
2013-11-01 02:05:00,68.3,63.9,29.78,SSW,212,3.5,3.5,86,0.00,CLR,,0.00,WeatherDisplay:10.37,2013-11-01 06:05:00,
2013-11-01 02:10:00,68.4,63.7,29.79,SSE,159,9.2,9.2,85,0.00,CLR,,0.00,WeatherDisplay:10.37,2013-11-01 06:10:00,
2013-11-01 02:15:00,68.5,63.8,29.78,West,261,5.8,5.8,85,0.00,CLR,,0.00,WeatherDisplay:10.37,2013-11-01 06:15:00,
2013-11-01 02:20:00,68.5,63.5,29.77,South,184,15.0,15.0,84,0.00,CLR,,0.00,WeatherDisplay:10.37,2013-11-01 06:20:00,
2013-11-01 02:25:00,68.6,63.6,29.76,SSE,154,6.9,6.9,84,0.00,CLR,,0.00,WeatherDisplay:10.37,2013-11-01 06:25:00,
2013-11-01 02:30:00,68.6,63.2,29.76,NE,54,3.5,3.5,83,0.00,CLR,,0.00,WeatherDisplay:10.37,2013-11-01 06:30:00,
2013-11-01 02:35:00,68.6,63.2,29.77,SW,227,11.5,11.5,83,0.00,CLR,,0.00,WeatherDisplay:10.37,2013-11-01 06:35:00,
2013-11-01 02:40:00,68.7,63.3,29.76,WSW,249,9.2,9.2,83,0.00,CLR,,0.00,WeatherDisplay:10.37,2013-11-01 06:40:00,
2013-11-01 02:45:00,68.7,63.0,29.75,West,276,9.2,9.2,82,0.00,CLR,,0.00,WeatherDisplay:10.37,2013-11-01 06:45:00,
2013-11-01 02:50:00,68.8,63.1,29.75,WSW,242,10.0,10.0,82,0.00,CLR,,0.00,WeatherDisplay:10.37,2013-11-01 06:50:00,
2013-11-01 02:55:00,68.8,63.1,29.76,SW,234,5.0,5.0,82,0.00,CLR,,0.00,WeatherDisplay:10.37,2013-11-01 06:55:00,
2013-11-01 03:00:00,68.8,63.1,29.76,SSW,210,12.7,12.7,82,0.00,CLR,,0.00,WeatherDisplay:10.37,2013-11-01 07:00:00,
2013-11-01 03:05:00,68.8,62.7,29.76,NE,48,11.5,11.5,81,0.00,CLR,,0.00,WeatherDisplay:10.37,2013-11-01 07:05:00,
2013-11-01 03:10:00,68.9,62.8,29.76,WSW,246,16.1,16.1,81,0.00,CLR,,0.00,WeatherDisplay:10.37,2013-11-01 07:10:00,
2013-11-01 03:15:00,69.0,62.6,29.77,SSW,209,11.5,11.5,80,0.00,CLR,,0.00,WeatherDisplay:10.37,2013-11-01 07:15:00,
2013-11-01 03:20:00,69.2,62.4,29.77,West,268,6.9,6.9,79,0.00,CLR,,0.00,WeatherDisplay:10.37,2013-11-01 07:20:00,
2013-11-01 03:25:00,69.3,62.5,29.77,WNW,284,11.5,11.5,79,0.00,CLR,,0.00,WeatherDisplay:10.37,2013-11-01 07:25:00,
2013-11-01 03:30:00,69.4,62.6,29.78,SSW,194,12.7,12.7,79,0.00,CLR,,0.00,WeatherDisplay:10.37,2013-11-01 07:30:00,
2013-11-01 03:35:00,69.4,62.6,29.78,SW,224,13.8,13.8,79,0.00,CLR,,0.00,WeatherDisplay:10.37,2013-11-01 07:35:00,
2013-11-01 03:40:00,69.4,62.6,29.77,SW,236,9.2,9.2,79,0.00,CLR,,0.00,WeatherDisplay:10.37,2013-11-01 07:40:00,
2013-11-01 03:45:00,69.4,62.6,29.77,SW,233,8.1,8.1,79,0.00,CLR,,0.00,WeatherDisplay:10.37,2013-11-01 07:45:00,
2013-11-01 03:50:00,69.3,62.5,29.77,SW,222,13.0,13.0,79,0.00,CLR,,0.00,WeatherDisplay:10.37,2013-11-01 07:50:00,
2013-11-01 03:55:00,69.2,62.4,29.75,SSW,211,9.2,9.2,79,0.00,CLR,,0.00,WeatherDisplay:10.37,2013-11-01 07:55:00,
2013-11-01 04:00:00,69.0,62.6,29.75,SW,226,11.5,11.5,80,0.00,CLR,,0.00,WeatherDisplay:10.37,2013-11-01 08:00:00,
2013-11-01 04:05:00,68.9,62.5,29.76,SW,235,19.6,19.6,80,0.00,CLR,,0.00,WeatherDisplay:10.37,2013-11-01 08:05:00,
2013-11-01 04:10:00,68.8,62.4,29.75,WSW,251,10.4,10.4,80,0.00,CLR,,0.00,WeatherDisplay:10.37,2013-11-01 08:10:00,
2013-11-01 04:15:00,68.6,62.5,29.76,SW,234,6.9,6.9,81,0.00,CLR,,0.00,WeatherDisplay:10.37,2013-11-01 08:15:00,
2013-11-01 04:20:00,68.5,62.4,29.76,SW,217,11.5,11.5,81,0.00,CLR,,0.00,WeatherDisplay:10.37,2013-11-01 08:20:00,
2013-11-01 04:25:00,68.5,62.4,29.75,WSW,241,6.9,6.9,81,0.00,CLR,,0.00,WeatherDisplay:10.37,2013-11-01 08:25:00,
2013-11-01 04:30:00,68.3,62.6,29.75,WSW,238,10.4,10.4,82,0.00,CLR,,0.00,WeatherDisplay:10.37,2013-11-01 08:30:00,
2013-11-01 04:35:00,68.2,62.5,29.76,SW,236,10.4,10.4,82,0.00,CLR,,0.00,WeatherDisplay:10.37,2013-11-01 08:35:00,
2013-11-01 04:40:00,68.2,62.5,29.76,WSW,246,9.2,9.2,82,0.00,CLR,,0.00,WeatherDisplay:10.37,2013-11-01 08:40:00,
2013-11-01 04:45:00,68.1,62.4,29.75,SW,229,13.8,13.8,82,0.00,CLR,,0.00,WeatherDisplay:10.37,2013-11-01 08:45:00,
2013-11-01 04:50:00,68.0,62.3,29.75,SSW,202,16.1,16.1,82,0.00,CLR,,0.00,WeatherDisplay:10.37,2013-11-01 08:50:00,
2013-11-01 04:55:00,68.0,62.3,29.75,SW,227,15.0,15.0,82,0.00,CLR,,0.00,WeatherDisplay:10.37,2013-11-01 08:55:00,
2013-11-01 05:00:00,67.9,62.2,29.75,SW,234,11.5,11.5,82,0.00,CLR,,0.00,WeatherDisplay:10.37,2013-11-01 09:00:00,
2013-11-01 05:05:00,67.9,62.2,29.75,South,172,10.0,10.0,82,0.00,CLR,,0.00,WeatherDisplay:10.37,2013-11-01 09:05:00,
2013-11-01 05:10:00,67.8,62.1,29.75,SW,218,9.2,9.2,82,0.00,CLR,,0.00,WeatherDisplay:10.37,2013-11-01 09:10:00,
2013-11-01 05:15:00,67.7,62.0,29.75,SW,232,9.2,9.2,82,0.00,CLR,,0.00,WeatherDisplay:10.37,2013-11-01 09:15:00,
2013-11-01 05:20:00,67.7,62.0,29.76,SW,223,12.0,12.0,82,0.00,CLR,,0.00,WeatherDisplay:10.37,2013-11-01 09:20:00,
2013-11-01 05:25:00,67.6,61.9,29.75,West,267,10.4,10.4,82,0.00,CLR,,0.00,WeatherDisplay:10.37,2013-11-01 09:25:00,
2013-11-01 05:30:00,67.6,61.9,29.75,WSW,251,5.0,5.0,82,0.00,CLR,,0.00,WeatherDisplay:10.37,2013-11-01 09:30:00,
2013-11-01 05:35:00,67.6,61.6,29.75,SW,232,13.8,13.8,81,0.00,CLR,,0.00,WeatherDisplay:10.37,2013-11-01 09:35:00,
2013-11-01 05:40:00,67.6,61.6,29.74,West,271,6.9,6.9,81,0.00,CLR,,0.00,WeatherDisplay:10.37,2013-11-01 09:40:00,
2013-11-01 05:45:00,67.5,61.5,29.74,SW,217,6.9,6.9,81,0.00,CLR,,0.00,WeatherDisplay:10.37,2013-11-01 09:45:00,
2013-11-01 05:50:00,67.5,61.1,29.74,WSW,237,9.2,9.2,80,0.00,CLR,,0.00,WeatherDisplay:10.37,2013-11-01 09:50:00,
2013-11-01 05:55:00,67.5,61.1,29.75,SW,232,5.8,5.8,80,0.00,CLR,,0.00,WeatherDisplay:10.37,2013-11-01 09:55:00,
2013-11-01 06:00:00,67.5,61.1,29.75,SW,226,4.6,4.6,80,0.00,CLR,,0.00,WeatherDisplay:10.37,2013-11-01 10:00:00,
2013-11-01 06:05:00,67.5,61.1,29.74,SW,214,5.8,5.8,80,0.00,CLR,,0.00,WeatherDisplay:10.37,2013-11-01 10:05:00,
2013-11-01 06:10:00,67.5,61.1,29.74,WSW,246,10.4,10.4,80,0.00,CLR,,0.00,WeatherDisplay:10.37,2013-11-01 10:10:00,
2013-11-01 06:15:00,67.4,61.0,29.74,SW,221,10.4,10.4,80,0.00,CLR,,0.00,WeatherDisplay:10.37,2013-11-01 10:15:00,
2013-11-01 06:20:00,67.4,61.0,29.73,WSW,238,4.0,4.0,80,0.00,CLR,,0.00,WeatherDisplay:10.37,2013-11-01 10:20:00,
2013-11-01 06:25:00,67.4,60.7,29.74,South,178,6.9,6.9,79,0.00,CLR,,0.00,WeatherDisplay:10.37,2013-11-01 10:25:00,
2013-11-01 06:30:00,67.4,60.7,29.74,WSW,240,6.9,6.9,79,0.00,CLR,,0.00,WeatherDisplay:10.37,2013-11-01 10:30:00,
2013-11-01 06:35:00,67.4,60.7,29.74,SW,230,6.9,6.9,79,0.00,CLR,,0.00,WeatherDisplay:10.37,2013-11-01 10:35:00,
2013-11-01 06:40:00,67.4,60.7,29.74,SW,233,4.6,4.6,79,0.00,CLR,,0.00,WeatherDisplay:10.37,2013-11-01 10:40:00,
2013-11-01 06:45:00,67.4,60.7,29.74,SW,225,8.1,8.1,79,0.00,CLR,,0.00,WeatherDisplay:10.37,2013-11-01 10:45:00,
2013-11-01 06:50:00,67.5,60.8,29.74,WSW,246,9.2,9.2,79,0.00,CLR,,0.00,WeatherDisplay:10.37,2013-11-01 10:50:00,
2013-11-01 06:55:00,67.4,60.7,29.74,WSW,250,3.5,3.5,79,0.00,CLR,,0.00,WeatherDisplay:10.37,2013-11-01 10:55:00,
2013-11-01 07:00:00,67.4,60.7,29.73,WSW,242,12.0,12.0,79,0.00,CLR,,0.00,WeatherDisplay:10.37,2013-11-01 11:00:00,
2013-11-01 07:05:00,67.3,60.6,29.73,SW,236,6.9,6.9,79,0.00,CLR,,0.00,WeatherDisplay:10.37,2013-11-01 11:05:00,
2013-11-01 07:10:00,67.3,60.6,29.73,South,175,10.4,10.4,79,0.00,CLR,,0.00,WeatherDisplay:10.37,2013-11-01 11:10:00,
2013-11-01 07:15:00,67.2,60.5,29.73,WSW,251,11.5,11.5,79,0.00,CLR,,0.00,WeatherDisplay:10.37,2013-11-01 11:15:00,
2013-11-01 07:20:00,67.1,60.7,29.73,SW,220,11.0,11.0,80,0.00,CLR,,0.00,WeatherDisplay:10.37,2013-11-01 11:20:00,
2013-11-01 07:25:00,67.0,60.6,29.73,WSW,247,10.4,10.4,80,0.00,CLR,,0.00,WeatherDisplay:10.37,2013-11-01 11:25:00,
2013-11-01 07:30:00,67.0,60.6,29.73,West,265,15.0,15.0,80,0.00,CLR,,0.00,WeatherDisplay:10.37,2013-11-01 11:30:00,
2013-11-01 07:35:00,67.0,60.6,29.73,West,280,13.8,13.8,80,0.00,CLR,,0.00,WeatherDisplay:10.37,2013-11-01 11:35:00,
2013-11-01 07:40:00,66.9,60.5,29.73,SW,221,10.4,10.4,80,0.00,CLR,,0.00,WeatherDisplay:10.37,2013-11-01 11:40:00,
2013-11-01 07:45:00,66.9,60.5,29.73,WSW,238,11.5,11.5,80,0.00,CLR,,0.00,WeatherDisplay:10.37,2013-11-01 11:45:00,
2013-11-01 07:50:00,66.9,60.9,29.73,SW,232,11.5,11.5,81,0.00,CLR,,0.00,WeatherDisplay:10.37,2013-11-01 11:50:00,
2013-11-01 07:55:00,66.9,60.9,29.73,WSW,256,19.6,19.6,81,0.00,CLR,,0.00,WeatherDisplay:10.37,2013-11-01 11:55:00,
2013-11-01 08:00:00,67.0,61.0,29.74,WSW,257,11.5,11.5,81,0.00,CLR,,0.00,WeatherDisplay:10.37,2013-11-01 12:00:00,
2013-11-01 08:05:00,67.0,61.0,29.74,SW,220,12.7,12.7,81,0.00,CLR,,0.00,WeatherDisplay:10.37,2013-11-01 12:05:00,
2013-11-01 08:10:00,67.0,61.0,29.74,WSW,238,11.5,11.5,81,0.00,CLR,,0.00,WeatherDisplay:10.37,2013-11-01 12:10:00,
2013-11-01 08:15:00,67.0,61.0,29.74,SSW,206,9.0,9.0,81,0.00,CLR,,0.00,WeatherDisplay:10.37,2013-11-01 12:15:00,
2013-11-01 08:20:00,67.0,61.0,29.74,WSW,247,5.8,5.8,81,0.00,CLR,,0.00,WeatherDisplay:10.37,2013-11-01 12:20:00,
2013-11-01 08:25:00,67.0,61.3,29.74,WSW,247,11.5,11.5,82,0.00,CLR,,0.00,WeatherDisplay:10.37,2013-11-01 12:25:00,
2013-11-01 08:30:00,67.0,61.3,29.74,SSW,200,9.2,9.2,82,0.00,CLR,,0.00,WeatherDisplay:10.37,2013-11-01 12:30:00,
2013-11-01 08:35:00,67.1,61.4,29.74,SSW,199,15.0,15.0,82,0.00,CLR,,0.00,WeatherDisplay:10.37,2013-11-01 12:35:00,
2013-11-01 08:40:00,67.1,61.4,29.74,WSW,240,10.4,10.4,82,0.00,CLR,,0.00,WeatherDisplay:10.37,2013-11-01 12:40:00,
2013-11-01 08:45:00,67.1,61.4,29.75,WSW,256,6.9,6.9,82,0.00,CLR,,0.00,WeatherDisplay:10.37,2013-11-01 12:45:00,
2013-11-01 08:50:00,67.1,61.8,29.75,WSW,248,10.0,10.0,83,0.00,CLR,,0.00,WeatherDisplay:10.37,2013-11-01 12:50:00,
2013-11-01 08:55:00,67.2,61.9,29.76,SW,229,15.0,15.0,83,0.00,CLR,,0.00,WeatherDisplay:10.37,2013-11-01 12:55:00,
2013-11-01 09:00:00,67.2,61.9,29.76,WSW,252,6.9,6.9,83,0.00,CLR,,0.00,WeatherDisplay:10.37,2013-11-01 13:00:00,
2013-11-01 09:05:00,67.2,61.9,29.76,SW,232,11.5,11.5,83,0.00,CLR,,0.00,WeatherDisplay:10.37,2013-11-01 13:05:00,
2013-11-01 09:10:00,67.2,61.9,29.76,WSW,244,11.5,11.5,83,0.00,CLR,,0.00,WeatherDisplay:10.37,2013-11-01 13:10:00,
2013-11-01 09:15:00,67.2,61.9,29.77,SSW,212,9.2,9.2,83,0.00,CLR,,0.00,WeatherDisplay:10.37,2013-11-01 13:15:00,
2013-11-01 09:20:00,67.3,62.3,29.76,WSW,251,7.0,7.0,84,0.00,CLR,,0.00,WeatherDisplay:10.37,2013-11-01 13:20:00,
2013-11-01 09:25:00,67.3,62.3,29.76,SSW,213,11.5,11.5,84,0.00,CLR,,0.00,WeatherDisplay:10.37,2013-11-01 13:25:00,
2013-11-01 09:30:00,67.4,62.4,29.76,SSW,205,7.0,7.0,84,0.00,CLR,,0.00,WeatherDisplay:10.37,2013-11-01 13:30:00,
2013-11-01 09:35:00,67.4,62.4,29.76,SW,233,10.4,10.4,84,0.00,CLR,,0.00,WeatherDisplay:10.37,2013-11-01 13:35:00,
2013-11-01 09:40:00,67.3,62.6,29.76,SW,229,10.4,10.4,85,0.00,CLR,,0.00,WeatherDisplay:10.37,2013-11-01 13:40:00,
2013-11-01 09:45:00,67.3,62.6,29.77,WSW,241,9.2,9.2,85,0.00,CLR,,0.00,WeatherDisplay:10.37,2013-11-01 13:45:00,
2013-11-01 09:50:00,67.2,62.9,29.77,WSW,242,4.0,4.0,86,0.01,RA,,0.01,WeatherDisplay:10.37,2013-11-01 13:50:00,
2013-11-01 09:55:00,67.0,63.0,29.77,SW,236,4.6,4.6,87,0.02,RA,,0.02,WeatherDisplay:10.37,2013-11-01 13:55:00,
2013-11-01 10:00:00,66.7,63.0,29.77,SW,223,9.2,9.2,88,0.03,RA,,0.03,WeatherDisplay:10.37,2013-11-01 14:00:00,
2013-11-01 10:05:00,66.4,63.1,29.77,SW,225,4.6,4.6,89,0.03,RA,,0.03,WeatherDisplay:10.37,2013-11-01 14:05:00,
2013-11-01 10:10:00,66.1,63.1,29.77,SW,225,10.4,10.4,90,0.03,CLR,,0.03,WeatherDisplay:10.37,2013-11-01 14:10:00,
2013-11-01 10:15:00,65.8,62.8,29.77,SW,227,6.9,6.9,90,0.04,RA,,0.04,WeatherDisplay:10.37,2013-11-01 14:15:00,
2013-11-01 10:20:00,65.7,63.0,29.77,WSW,242,3.5,3.5,91,0.04,RA,,0.04,WeatherDisplay:10.37,2013-11-01 14:20:00,
2013-11-01 10:25:00,65.5,63.1,29.77,SW,222,6.9,6.9,92,0.05,RA,,0.05,WeatherDisplay:10.37,2013-11-01 14:25:00,
2013-11-01 10:30:00,65.4,63.0,29.77,SW,228,4.6,4.6,92,0.05,RA,,0.05,WeatherDisplay:10.37,2013-11-01 14:30:00,
2013-11-01 10:35:00,65.3,62.9,29.78,SW,234,6.0,6.0,92,0.05,,,0.05,WeatherDisplay:10.37,2013-11-01 14:35:00,
2013-11-01 10:40:00,65.3,63.2,29.77,WSW,248,6.0,6.0,93,0.05,CLR,,0.05,WeatherDisplay:10.37,2013-11-01 14:40:00,
2013-11-01 10:45:00,65.2,63.1,29.78,West,259,8.1,8.1,93,0.05,CLR,,0.05,WeatherDisplay:10.37,2013-11-01 14:45:00,
2013-11-01 10:50:00,65.2,63.1,29.78,West,280,4.6,4.6,93,0.05,RA,,0.06,WeatherDisplay:10.37,2013-11-01 14:50:00,
2013-11-01 10:55:00,65.1,63.0,29.78,WSW,254,6.9,6.9,93,0.04,RA,,0.06,WeatherDisplay:10.37,2013-11-01 14:55:00,
2013-11-01 11:00:00,65.1,63.3,29.77,West,261,0.0,0.0,94,0.03,,,0.06,WeatherDisplay:10.37,2013-11-01 15:00:00,
2013-11-01 11:05:00,65.0,63.2,29.77,NW,318,0.0,0.0,94,0.03,CLR,,0.06,WeatherDisplay:10.37,2013-11-01 15:05:00,
2013-11-01 11:10:00,65.0,63.2,29.78,WNW,288,0.0,0.0,94,0.04,RA,,0.07,WeatherDisplay:10.37,2013-11-01 15:10:00,
2013-11-01 11:15:00,64.9,63.1,29.77,SSW,210,3.5,3.5,94,0.03,RA,,0.07,WeatherDisplay:10.37,2013-11-01 15:15:00,
2013-11-01 11:20:00,64.9,63.1,29.77,WSW,248,2.0,2.0,94,0.04,RA,,0.08,WeatherDisplay:10.37,2013-11-01 15:20:00,
2013-11-01 11:25:00,64.9,63.1,29.77,WSW,248,2.3,2.3,94,0.04,RA,,0.09,WeatherDisplay:10.37,2013-11-01 15:25:00,
2013-11-01 11:30:00,65.0,63.2,29.77,WSW,240,0.0,0.0,94,0.04,RA,,0.09,WeatherDisplay:10.37,2013-11-01 15:30:00,
2013-11-01 11:35:00,65.2,63.4,29.76,WSW,241,2.3,2.3,94,0.04,,,0.09,WeatherDisplay:10.37,2013-11-01 15:35:00,
2013-11-01 11:40:00,65.3,63.8,29.76,WSW,241,3.5,3.5,95,0.04,CLR,,0.09,WeatherDisplay:10.37,2013-11-01 15:40:00,
2013-11-01 11:45:00,65.4,63.9,29.76,WSW,242,3.5,3.5,95,0.04,CLR,,0.09,WeatherDisplay:10.37,2013-11-01 15:45:00,
2013-11-01 11:50:00,65.4,63.9,29.76,WSW,244,3.5,3.5,95,0.03,CLR,,0.09,WeatherDisplay:10.37,2013-11-01 15:50:00,
2013-11-01 11:55:00,65.5,64.0,29.76,WSW,242,2.3,2.3,95,0.03,CLR,,0.09,WeatherDisplay:10.37,2013-11-01 15:55:00,
2013-11-01 12:00:00,65.6,64.1,29.76,WSW,238,3.5,0.0,95,0.04,RA,,0.10,WeatherDisplay:10.37,2013-11-01 16:00:00,
2013-11-01 12:05:00,65.6,64.1,29.76,WSW,238,0.0,0.0,95,0.05,RA,,0.11,WeatherDisplay:10.37,2013-11-01 16:05:00,
2013-11-01 12:10:00,65.6,64.1,29.76,SW,229,9.2,9.2,95,0.05,RA,,0.12,WeatherDisplay:10.37,2013-11-01 16:10:00,
2013-11-01 12:15:00,65.3,63.5,29.76,SSW,199,9.2,9.2,94,0.09,RA,,0.16,WeatherDisplay:10.37,2013-11-01 16:15:00,
2013-11-01 12:20:00,65.0,63.2,29.76,WSW,244,11.5,11.5,94,0.11,RA,,0.19,WeatherDisplay:10.37,2013-11-01 16:20:00,
2013-11-01 12:25:00,64.9,63.1,29.75,WSW,251,7.0,7.0,94,0.11,RA,,0.20,WeatherDisplay:10.37,2013-11-01 16:25:00,
2013-11-01 12:30:00,64.8,63.0,29.75,SW,221,9.2,9.2,94,0.11,RA,,0.20,WeatherDisplay:10.37,2013-11-01 16:30:00,
2013-11-01 12:35:00,64.7,62.6,29.75,SW,233,6.9,6.9,93,0.11,CLR,,0.20,WeatherDisplay:10.37,2013-11-01 16:35:00,
2013-11-01 12:40:00,64.7,62.6,29.74,WSW,244,0.0,0.0,93,0.11,CLR,,0.20,WeatherDisplay:10.37,2013-11-01 16:40:00,
2013-11-01 12:45:00,64.7,62.9,29.74,WSW,240,0.0,0.0,94,0.11,CLR,,0.20,WeatherDisplay:10.37,2013-11-01 16:45:00,
2013-11-01 12:50:00,64.8,63.0,29.74,WSW,243,8.1,8.1,94,0.11,CLR,,0.20,WeatherDisplay:10.37,2013-11-01 16:50:00,
2013-11-01 12:55:00,64.7,62.6,29.73,SW,217,3.5,3.5,93,0.11,CLR,,0.20,WeatherDisplay:10.37,2013-11-01 16:55:00,
2013-11-01 13:00:00,64.7,62.6,29.73,SW,228,0.0,0.0,93,0.10,CLR,,0.20,WeatherDisplay:10.37,2013-11-01 17:00:00,
2013-11-01 13:05:00,64.7,62.6,29.73,WSW,238,3.5,3.5,93,0.09,CLR,,0.20,WeatherDisplay:10.37,2013-11-01 17:05:00,
2013-11-01 13:10:00,64.9,62.8,29.72,SW,236,4.6,4.6,93,0.08,CLR,,0.20,WeatherDisplay:10.37,2013-11-01 17:10:00,
2013-11-01 13:15:00,65.2,63.1,29.72,SW,223,0.0,0.0,93,0.04,CLR,,0.20,WeatherDisplay:10.37,2013-11-01 17:15:00,
2013-11-01 13:20:00,65.4,63.3,29.71,SW,223,0.0,0.0,93,0.01,CLR,,0.20,WeatherDisplay:10.37,2013-11-01 17:20:00,
2013-11-01 13:25:00,65.5,63.4,29.72,SW,234,5.0,5.0,93,0.00,CLR,,0.20,WeatherDisplay:10.37,2013-11-01 17:25:00,
2013-11-01 13:30:00,65.6,63.2,29.73,SW,234,4.6,4.6,92,0.00,CLR,,0.20,WeatherDisplay:10.37,2013-11-01 17:30:00,
2013-11-01 13:35:00,65.7,63.3,29.74,SW,229,3.5,3.5,92,0.00,CLR,,0.20,WeatherDisplay:10.37,2013-11-01 17:35:00,
2013-11-01 13:40:00,65.7,63.3,29.75,West,259,6.0,6.0,92,0.00,CLR,,0.20,WeatherDisplay:10.37,2013-11-01 17:40:00,
2013-11-01 13:45:00,65.7,63.3,29.73,WSW,246,5.8,5.8,92,0.00,CLR,,0.20,WeatherDisplay:10.37,2013-11-01 17:45:00,
2013-11-01 13:50:00,65.6,62.9,29.71,West,259,3.5,3.5,91,0.00,CLR,,0.20,WeatherDisplay:10.37,2013-11-01 17:50:00,
2013-11-01 13:55:00,65.5,62.8,29.71,WSW,243,6.9,6.9,91,0.00,CLR,,0.20,WeatherDisplay:10.37,2013-11-01 17:55:00,
2013-11-01 14:00:00,65.7,62.7,29.70,SW,234,11.5,11.5,90,0.00,CLR,,0.20,WeatherDisplay:10.37,2013-11-01 18:00:00,
2013-11-01 14:05:00,66.2,62.9,29.70,West,259,11.5,11.5,89,0.00,CLR,,0.20,WeatherDisplay:10.37,2013-11-01 18:05:00,
2013-11-01 14:10:00,66.3,62.3,29.70,West,275,6.9,6.9,87,0.00,CLR,,0.20,WeatherDisplay:10.37,2013-11-01 18:10:00,
2013-11-01 14:15:00,66.3,62.0,29.70,WSW,244,10.4,10.4,86,0.00,CLR,,0.20,WeatherDisplay:10.37,2013-11-01 18:15:00,
2013-11-01 14:20:00,66.3,61.0,29.70,SW,234,9.2,9.2,83,0.00,CLR,,0.20,WeatherDisplay:10.37,2013-11-01 18:20:00,
2013-11-01 14:25:00,66.4,61.4,29.70,WSW,245,11.5,11.5,84,0.00,CLR,,0.20,WeatherDisplay:10.37,2013-11-01 18:25:00,
2013-11-01 14:30:00,66.3,60.6,29.71,WSW,241,9.2,9.2,82,0.00,CLR,,0.20,WeatherDisplay:10.37,2013-11-01 18:30:00,
2013-11-01 14:35:00,66.0,60.3,29.71,SSW,195,3.5,3.5,82,0.00,CLR,,0.20,WeatherDisplay:10.37,2013-11-01 18:35:00,
2013-11-01 14:40:00,65.9,60.6,29.71,WSW,239,9.2,9.2,83,0.00,CLR,,0.20,WeatherDisplay:10.37,2013-11-01 18:40:00,
2013-11-01 14:45:00,65.7,60.1,29.70,SSW,195,10.4,10.4,82,0.00,CLR,,0.20,WeatherDisplay:10.37,2013-11-01 18:45:00,
2013-11-01 14:50:00,65.6,60.0,29.70,WSW,242,10.4,10.4,82,0.00,CLR,,0.20,WeatherDisplay:10.37,2013-11-01 18:50:00,
2013-11-01 14:55:00,65.4,59.8,29.70,SSW,205,11.5,11.5,82,0.00,CLR,,0.20,WeatherDisplay:10.37,2013-11-01 18:55:00,
2013-11-01 15:00:00,65.3,59.7,29.70,SW,218,10.4,10.4,82,0.00,CLR,,0.20,WeatherDisplay:10.37,2013-11-01 19:00:00,
2013-11-01 15:05:00,65.5,60.9,29.70,WSW,256,3.5,3.5,85,0.00,CLR,,0.20,WeatherDisplay:10.37,2013-11-01 19:05:00,
2013-11-01 15:10:00,65.9,60.9,29.70,SW,233,8.1,8.1,84,0.00,CLR,,0.20,WeatherDisplay:10.37,2013-11-01 19:10:00,
2013-11-01 15:15:00,66.3,61.0,29.69,SSW,212,15.0,15.0,83,0.00,CLR,,0.20,WeatherDisplay:10.37,2013-11-01 19:15:00,
2013-11-01 15:20:00,66.3,60.3,29.69,WSW,238,10.4,10.4,81,0.00,CLR,,0.20,WeatherDisplay:10.37,2013-11-01 19:20:00,
2013-11-01 15:25:00,66.5,60.5,29.68,WSW,245,11.5,11.5,81,0.00,CLR,,0.20,WeatherDisplay:10.37,2013-11-01 19:25:00,
2013-11-01 15:30:00,66.6,60.6,29.68,SW,235,5.8,5.8,81,0.00,CLR,,0.20,WeatherDisplay:10.37,2013-11-01 19:30:00,
2013-11-01 15:35:00,66.6,60.6,29.68,WSW,257,6.9,6.9,81,0.00,CLR,,0.20,WeatherDisplay:10.37,2013-11-01 19:35:00,
2013-11-01 15:40:00,66.6,60.6,29.67,NW,317,5.8,5.8,81,0.00,CLR,,0.20,WeatherDisplay:10.37,2013-11-01 19:40:00,
2013-11-01 15:45:00,66.5,60.5,29.67,SW,236,11.5,11.5,81,0.00,CLR,,0.20,WeatherDisplay:10.37,2013-11-01 19:45:00,
2013-11-01 15:50:00,66.3,59.9,29.68,WSW,242,11.5,11.5,80,0.00,CLR,,0.20,WeatherDisplay:10.37,2013-11-01 19:50:00,
2013-11-01 15:55:00,66.0,59.7,29.67,WSW,249,12.7,12.7,80,0.00,CLR,,0.20,WeatherDisplay:10.37,2013-11-01 19:55:00,
2013-11-01 16:00:00,65.8,59.8,29.67,SW,227,8.1,8.1,81,0.00,CLR,,0.20,WeatherDisplay:10.37,2013-11-01 20:00:00,
2013-11-01 16:05:00,65.9,60.2,29.66,SSW,196,5.8,5.8,82,0.00,CLR,,0.20,WeatherDisplay:10.37,2013-11-01 20:05:00,
2013-11-01 16:10:00,66.0,60.0,29.66,SW,233,5.8,5.8,81,0.00,CLR,,0.20,WeatherDisplay:10.37,2013-11-01 20:10:00,
2013-11-01 16:15:00,66.3,60.3,29.66,WSW,242,5.8,5.8,81,0.00,CLR,,0.20,WeatherDisplay:10.37,2013-11-01 20:15:00,
2013-11-01 16:20:00,66.3,60.3,29.66,SW,217,0.0,0.0,81,0.00,CLR,,0.20,WeatherDisplay:10.37,2013-11-01 20:20:00,
2013-11-01 16:25:00,66.5,60.8,29.65,WSW,252,0.0,0.0,82,0.00,CLR,,0.20,WeatherDisplay:10.37,2013-11-01 20:25:00,
2013-11-01 16:30:00,66.6,60.2,29.66,SW,233,4.6,4.6,80,0.00,CLR,,0.20,WeatherDisplay:10.37,2013-11-01 20:30:00,
2013-11-01 16:35:00,66.7,60.3,29.65,SW,236,3.5,3.5,80,0.00,CLR,,0.20,WeatherDisplay:10.37,2013-11-01 20:35:00,
2013-11-01 16:40:00,66.9,60.5,29.66,South,180,4.6,4.6,80,0.00,CLR,,0.20,WeatherDisplay:10.37,2013-11-01 20:40:00,
2013-11-01 16:45:00,66.9,60.2,29.66,SSW,209,2.3,2.3,79,0.00,CLR,,0.20,WeatherDisplay:10.37,2013-11-01 20:45:00,
2013-11-01 16:50:00,67.0,60.6,29.66,SW,225,3.5,3.5,80,0.00,CLR,,0.20,WeatherDisplay:10.37,2013-11-01 20:50:00,
2013-11-01 16:55:00,66.8,60.1,29.66,West,261,2.3,2.3,79,0.00,CLR,,0.20,WeatherDisplay:10.37,2013-11-01 20:55:00,
2013-11-01 17:00:00,66.4,59.7,29.67,SW,219,7.0,7.0,79,0.00,CLR,,0.20,WeatherDisplay:10.37,2013-11-01 21:00:00,
2013-11-01 17:05:00,65.9,59.6,29.67,SSW,213,3.5,3.5,80,0.00,CLR,,0.20,WeatherDisplay:10.37,2013-11-01 21:05:00,
2013-11-01 17:10:00,65.8,59.8,29.67,WSW,249,3.5,3.5,81,0.00,CLR,,0.20,WeatherDisplay:10.37,2013-11-01 21:10:00,
2013-11-01 17:15:00,65.7,59.7,29.67,SW,225,8.1,8.1,81,0.00,CLR,,0.20,WeatherDisplay:10.37,2013-11-01 21:15:00,
2013-11-01 17:20:00,65.4,59.4,29.67,SW,219,9.2,9.2,81,0.00,CLR,,0.20,WeatherDisplay:10.37,2013-11-01 21:20:00,
2013-11-01 17:25:00,64.9,59.3,29.68,SW,225,11.5,11.5,82,0.00,CLR,,0.20,WeatherDisplay:10.37,2013-11-01 21:25:00,
2013-11-01 17:30:00,64.5,58.9,29.68,SW,215,4.6,4.6,82,0.00,CLR,,0.20,WeatherDisplay:10.37,2013-11-01 21:30:00,
2013-11-01 17:35:00,64.1,58.8,29.69,SW,234,3.5,3.5,83,0.00,CLR,,0.20,WeatherDisplay:10.37,2013-11-01 21:35:00,
2013-11-01 17:40:00,63.9,59.0,29.69,West,280,4.6,4.6,84,0.00,CLR,,0.20,WeatherDisplay:10.37,2013-11-01 21:40:00,
2013-11-01 17:45:00,63.6,58.7,29.69,SW,218,2.0,2.0,84,0.00,CLR,,0.20,WeatherDisplay:10.37,2013-11-01 21:45:00,
2013-11-01 17:50:00,63.3,58.4,29.69,SW,220,8.0,8.0,84,0.00,CLR,,0.20,WeatherDisplay:10.37,2013-11-01 21:50:00,
2013-11-01 17:55:00,63.1,58.2,29.69,SSW,202,5.8,5.8,84,0.00,CLR,,0.20,WeatherDisplay:10.37,2013-11-01 21:55:00,
2013-11-01 18:00:00,62.9,58.0,29.69,SW,224,9.0,9.0,84,0.00,CLR,,0.20,WeatherDisplay:10.37,2013-11-01 22:00:00,
2013-11-01 18:05:00,62.6,58.0,29.68,WSW,239,6.0,6.0,85,0.00,CLR,,0.20,WeatherDisplay:10.37,2013-11-01 22:05:00,
2013-11-01 18:10:00,62.4,57.8,29.68,SW,215,8.1,8.1,85,0.00,CLR,,0.20,WeatherDisplay:10.37,2013-11-01 22:10:00,
2013-11-01 18:15:00,62.2,58.0,29.68,SW,215,4.6,4.9,86,0.00,CLR,,0.20,WeatherDisplay:10.37,2013-11-01 22:15:00,
2013-11-01 18:20:00,62.1,57.9,29.68,WSW,252,5.8,5.8,86,0.00,CLR,,0.20,WeatherDisplay:10.37,2013-11-01 22:20:00,
2013-11-01 18:25:00,61.9,58.0,29.68,WSW,248,3.5,3.5,87,0.00,CLR,,0.20,WeatherDisplay:10.37,2013-11-01 22:25:00,
2013-11-01 18:30:00,61.8,57.9,29.68,WSW,248,0.0,0.0,87,0.00,CLR,,0.20,WeatherDisplay:10.37,2013-11-01 22:30:00,
2013-11-01 18:35:00,61.7,57.8,29.68,WSW,243,2.3,2.3,87,0.00,CLR,,0.20,WeatherDisplay:10.37,2013-11-01 22:35:00,
2013-11-01 18:40:00,61.5,57.9,29.68,WSW,241,3.5,3.5,88,0.00,CLR,,0.20,WeatherDisplay:10.37,2013-11-01 22:40:00,
2013-11-01 18:45:00,61.3,57.7,29.68,SW,236,3.5,3.7,88,0.00,CLR,,0.20,WeatherDisplay:10.37,2013-11-01 22:45:00,
2013-11-01 18:50:00,61.1,57.5,29.68,SW,236,3.5,3.5,88,0.00,CLR,,0.20,WeatherDisplay:10.37,2013-11-01 22:50:00,
2013-11-01 18:55:00,60.9,57.6,29.68,WSW,240,4.6,4.6,89,0.00,CLR,,0.20,WeatherDisplay:10.37,2013-11-01 22:55:00,
2013-11-01 19:00:00,60.7,57.4,29.68,WSW,240,0.0,0.0,89,0.00,CLR,,0.20,WeatherDisplay:10.37,2013-11-01 23:00:00,
2013-11-01 19:05:00,60.6,57.7,29.68,WSW,240,0.0,0.0,90,0.00,CLR,,0.20,WeatherDisplay:10.37,2013-11-01 23:05:00,
2013-11-01 19:10:00,60.5,57.6,29.68,WSW,240,3.5,3.5,90,0.00,CLR,,0.20,WeatherDisplay:10.37,2013-11-01 23:10:00,
2013-11-01 19:15:00,60.4,57.5,29.69,WSW,241,4.6,4.6,90,0.00,CLR,,0.20,WeatherDisplay:10.37,2013-11-01 23:15:00,
2013-11-01 19:20:00,60.4,57.8,29.69,WSW,240,0.0,0.0,91,0.00,CLR,,0.20,WeatherDisplay:10.37,2013-11-01 23:20:00,
2013-11-01 19:25:00,60.5,57.9,29.69,WSW,241,0.0,0.0,91,0.00,CLR,,0.20,WeatherDisplay:10.37,2013-11-01 23:25:00,
2013-11-01 19:30:00,60.4,57.8,29.69,WSW,241,1.2,0.0,91,0.00,CLR,,0.20,WeatherDisplay:10.37,2013-11-01 23:30:00,
2013-11-01 19:35:00,60.4,57.8,29.69,WSW,241,0.0,0.0,91,0.00,CLR,,0.20,WeatherDisplay:10.37,2013-11-01 23:35:00,
2013-11-01 19:40:00,60.4,57.8,29.70,WSW,241,2.3,0.0,91,0.00,CLR,,0.20,WeatherDisplay:10.37,2013-11-01 23:40:00,
2013-11-01 19:45:00,60.4,57.8,29.70,WSW,244,3.5,3.5,91,0.00,CLR,,0.20,WeatherDisplay:10.37,2013-11-01 23:45:00,
2013-11-01 19:50:00,60.4,57.8,29.70,WSW,245,3.5,3.5,91,0.00,CLR,,0.20,WeatherDisplay:10.37,2013-11-01 23:50:00,
2013-11-01 19:55:00,60.4,58.1,29.70,WSW,244,3.5,3.5,92,0.00,CLR,,0.20,WeatherDisplay:10.37,2013-11-01 23:55:00,
2013-11-01 20:00:00,60.4,58.1,29.70,SW,232,3.5,3.5,92,0.00,CLR,,0.20,WeatherDisplay:10.37,2013-11-02 00:00:00,
2013-11-01 20:05:00,60.4,58.1,29.70,SW,229,3.5,0.0,92,0.00,CLR,,0.20,WeatherDisplay:10.37,2013-11-02 00:05:00,
2013-11-01 20:10:00,60.3,58.0,29.70,SW,229,0.0,0.0,92,0.00,CLR,,0.20,WeatherDisplay:10.37,2013-11-02 00:10:00,
2013-11-01 20:15:00,60.2,57.9,29.70,SW,229,0.0,0.0,92,0.00,CLR,,0.20,WeatherDisplay:10.37,2013-11-02 00:15:00,
2013-11-01 20:20:00,60.2,57.9,29.70,SW,229,0.0,0.0,92,0.00,CLR,,0.20,WeatherDisplay:10.37,2013-11-02 00:20:00,
2013-11-01 20:25:00,60.2,57.9,29.70,SW,229,2.0,2.0,92,0.00,CLR,,0.20,WeatherDisplay:10.37,2013-11-02 00:25:00,
2013-11-01 20:30:00,60.2,57.9,29.70,SW,232,3.5,3.5,92,0.00,CLR,,0.20,WeatherDisplay:10.37,2013-11-02 00:30:00,
2013-11-01 20:35:00,60.1,57.8,29.70,SW,232,3.5,3.5,92,0.00,CLR,,0.20,WeatherDisplay:10.37,2013-11-02 00:35:00,
2013-11-01 20:40:00,60.1,57.8,29.70,SW,234,4.6,4.6,92,0.00,CLR,,0.20,WeatherDisplay:10.37,2013-11-02 00:40:00,
2013-11-01 20:45:00,60.0,57.7,29.70,SW,235,3.5,3.5,92,0.00,CLR,,0.20,WeatherDisplay:10.37,2013-11-02 00:45:00,
2013-11-01 20:50:00,60.0,57.7,29.70,WSW,238,5.8,5.8,92,0.00,CLR,,0.20,WeatherDisplay:10.37,2013-11-02 00:50:00,
2013-11-01 20:55:00,60.0,58.0,29.70,WSW,240,4.0,4.0,93,0.00,CLR,,0.20,WeatherDisplay:10.37,2013-11-02 00:55:00,
2013-11-01 21:00:00,59.9,57.9,29.70,SW,231,5.0,5.0,93,0.00,CLR,,0.20,WeatherDisplay:10.37,2013-11-02 01:00:00,
2013-11-01 21:05:00,59.8,57.8,29.70,WSW,247,4.6,4.6,93,0.00,CLR,,0.20,WeatherDisplay:10.37,2013-11-02 01:05:00,
2013-11-01 21:10:00,59.8,57.8,29.70,WSW,255,4.6,4.6,93,0.00,CLR,,0.20,WeatherDisplay:10.37,2013-11-02 01:10:00,
2013-11-01 21:15:00,59.7,57.7,29.70,WSW,246,6.9,6.9,93,0.00,CLR,,0.20,WeatherDisplay:10.37,2013-11-02 01:15:00,
2013-11-01 21:20:00,59.7,57.7,29.71,SW,227,7.0,7.0,93,0.00,CLR,,0.20,WeatherDisplay:10.37,2013-11-02 01:20:00,
2013-11-01 21:25:00,59.6,57.6,29.71,SW,231,3.5,3.5,93,0.00,CLR,,0.20,WeatherDisplay:10.37,2013-11-02 01:25:00,
2013-11-01 21:30:00,59.6,57.6,29.71,WSW,246,5.8,5.8,93,0.00,CLR,,0.20,WeatherDisplay:10.37,2013-11-02 01:30:00,
2013-11-01 21:35:00,59.6,57.6,29.71,WSW,237,5.8,5.8,93,0.00,CLR,,0.20,WeatherDisplay:10.37,2013-11-02 01:35:00,
2013-11-01 21:40:00,59.6,57.6,29.71,WSW,241,6.9,6.9,93,0.00,CLR,,0.20,WeatherDisplay:10.37,2013-11-02 01:40:00,
2013-11-01 21:45:00,59.6,57.6,29.72,WSW,240,6.9,6.9,93,0.00,CLR,,0.20,WeatherDisplay:10.37,2013-11-02 01:45:00,
2013-11-01 21:50:00,59.6,57.6,29.72,SW,230,4.6,4.6,93,0.00,CLR,,0.20,WeatherDisplay:10.37,2013-11-02 01:50:00,
2013-11-01 21:55:00,59.6,57.6,29.71,WSW,238,6.0,6.0,93,0.00,CLR,,0.20,WeatherDisplay:10.37,2013-11-02 01:55:00,
2013-11-01 22:00:00,59.6,57.6,29.71,WSW,240,4.6,4.6,93,0.00,CLR,,0.20,WeatherDisplay:10.37,2013-11-02 02:00:00,
2013-11-01 22:05:00,59.6,57.6,29.71,WSW,246,3.5,3.5,93,0.00,CLR,,0.20,WeatherDisplay:10.37,2013-11-02 02:05:00,
2013-11-01 22:10:00,59.6,57.6,29.71,SW,230,4.6,4.6,93,0.00,CLR,,0.20,WeatherDisplay:10.37,2013-11-02 02:10:00,
2013-11-01 22:15:00,59.5,57.5,29.71,WSW,245,4.6,4.6,93,0.00,CLR,,0.20,WeatherDisplay:10.37,2013-11-02 02:15:00,
2013-11-01 22:20:00,59.5,57.5,29.71,WSW,239,5.8,5.8,93,0.00,CLR,,0.20,WeatherDisplay:10.37,2013-11-02 02:20:00,
2013-11-01 22:25:00,59.4,57.7,29.71,SW,233,5.8,5.8,94,0.00,CLR,,0.20,WeatherDisplay:10.37,2013-11-02 02:25:00,
2013-11-01 22:30:00,59.4,57.7,29.71,SW,232,6.0,6.0,94,0.00,CLR,,0.20,WeatherDisplay:10.37,2013-11-02 02:30:00,
2013-11-01 22:35:00,59.4,57.7,29.71,WSW,246,9.2,9.2,94,0.00,CLR,,0.20,WeatherDisplay:10.37,2013-11-02 02:35:00,
2013-11-01 22:40:00,59.4,57.7,29.71,SW,236,4.6,4.6,94,0.00,CLR,,0.20,WeatherDisplay:10.37,2013-11-02 02:40:00,
2013-11-01 22:45:00,59.3,57.6,29.72,SW,225,3.5,0.0,94,0.00,CLR,,0.20,WeatherDisplay:10.37,2013-11-02 02:45:00,
2013-11-01 22:50:00,59.3,57.6,29.72,SW,225,4.6,4.6,94,0.00,CLR,,0.20,WeatherDisplay:10.37,2013-11-02 02:50:00,
2013-11-01 22:55:00,59.4,57.7,29.72,SW,225,3.5,3.5,94,0.00,CLR,,0.20,WeatherDisplay:10.37,2013-11-02 02:55:00,
2013-11-01 23:00:00,59.4,57.7,29.72,SW,225,4.6,4.6,94,0.00,CLR,,0.20,WeatherDisplay:10.37,2013-11-02 03:00:00,
2013-11-01 23:05:00,59.3,57.6,29.72,WSW,241,4.0,4.0,94,0.00,CLR,,0.20,WeatherDisplay:10.37,2013-11-02 03:05:00,
2013-11-01 23:10:00,59.3,57.6,29.72,WSW,238,3.5,3.5,94,0.00,CLR,,0.20,WeatherDisplay:10.37,2013-11-02 03:10:00,
2013-11-01 23:15:00,59.1,57.4,29.72,WSW,238,0.0,0.0,94,0.00,CLR,,0.20,WeatherDisplay:10.37,2013-11-02 03:15:00,
2013-11-01 23:20:00,59.0,57.3,29.72,WSW,239,0.0,0.0,94,0.00,CLR,,0.20,WeatherDisplay:10.37,2013-11-02 03:20:00,
2013-11-01 23:25:00,59.0,57.3,29.72,WSW,239,0.0,0.0,94,0.00,CLR,,0.20,WeatherDisplay:10.37,2013-11-02 03:25:00,
2013-11-01 23:30:00,59.1,57.4,29.72,WSW,240,4.6,4.6,94,0.00,CLR,,0.20,WeatherDisplay:10.37,2013-11-02 03:30:00,
2013-11-01 23:35:00,59.2,57.5,29.72,WSW,239,6.9,6.9,94,0.00,CLR,,0.20,WeatherDisplay:10.37,2013-11-02 03:35:00,
2013-11-01 23:40:00,59.3,57.6,29.72,WSW,242,3.5,3.5,94,0.00,CLR,,0.20,WeatherDisplay:10.37,2013-11-02 03:40:00,
2013-11-01 23:45:00,59.3,57.6,29.72,SW,230,6.0,6.0,94,0.00,CLR,,0.20,WeatherDisplay:10.37,2013-11-02 03:45:00,
2013-11-01 23:50:00,59.4,58.0,29.72,WSW,245,3.5,3.5,95,0.00,CLR,,0.20,WeatherDisplay:10.37,2013-11-02 03:50:00,
2013-11-01 23:55:00,59.5,58.1,29.72,WSW,244,4.6,4.6,95,0.00,CLR,,0.20,WeatherDisplay:10.37,2013-11-02 03:55:00,